sensor_id;sensor_type;location;lat;lon;timestamp;P1;durP1;ratioP1;P2;durP2;ratioP2
10116;SDS011;5098;48.792;9.012;2023-03-30T00:01:34;6.63;;;2.87;;
10116;SDS011;5098;48.792;9.012;2023-03-30T00:04:00;6.80;;;2.67;;
10116;SDS011;5098;48.792;9.012;2023-03-30T00:06:26;4.10;;;1.97;;
10116;SDS011;5098;48.792;9.012;2023-03-30T00:08:53;10.83;;;2.47;;
10116;SDS011;5098;48.792;9.012;2023-03-30T00:11:22;5.13;;;2.47;;
10116;SDS011;5098;48.792;9.012;2023-03-30T00:13:49;5.37;;;2.00;;
10116;SDS011;5098;48.792;9.012;2023-03-30T00:16:15;5.00;;;2.50;;
10116;SDS011;5098;48.792;9.012;2023-03-30T00:18:42;7.10;;;2.70;;
10116;SDS011;5098;48.792;9.012;2023-03-30T00:21:09;10.10;;;2.70;;
10116;SDS011;5098;48.792;9.012;2023-03-30T00:23:44;7.93;;;2.50;;
10116;SDS011;5098;48.792;9.012;2023-03-30T00:26:12;8.80;;;3.13;;
10116;SDS011;5098;48.792;9.012;2023-03-30T00:28:38;8.50;;;2.47;;
10116;SDS011;5098;48.792;9.012;2023-03-30T00:31:05;14.03;;;3.10;;
10116;SDS011;5098;48.792;9.012;2023-03-30T00:33:31;8.70;;;2.50;;
10116;SDS011;5098;48.792;9.012;2023-03-30T00:35:57;10.40;;;2.67;;
10116;SDS011;5098;48.792;9.012;2023-03-30T00:38:24;5.90;;;2.97;;
10116;SDS011;5098;48.792;9.012;2023-03-30T00:40:58;3.93;;;2.43;;
10116;SDS011;5098;48.792;9.012;2023-03-30T00:43:24;7.73;;;2.50;;
10116;SDS011;5098;48.792;9.012;2023-03-30T00:45:51;7.70;;;2.70;;
10116;SDS011;5098;48.792;9.012;2023-03-30T00:48:21;12.27;;;2.90;;
10116;SDS011;5098;48.792;9.012;2023-03-30T00:53:24;8.40;;;2.53;;
10116;SDS011;5098;48.792;9.012;2023-03-30T00:55:53;7.00;;;2.13;;
10116;SDS011;5098;48.792;9.012;2023-03-30T00:58:21;10.10;;;2.40;;
10116;SDS011;5098;48.792;9.012;2023-03-30T01:00:48;5.10;;;2.20;;
10116;SDS011;5098;48.792;9.012;2023-03-30T01:03:26;8.10;;;2.80;;
10116;SDS011;5098;48.792;9.012;2023-03-30T01:05:53;16.90;;;2.93;;
10116;SDS011;5098;48.792;9.012;2023-03-30T01:08:20;9.10;;;2.60;;
10116;SDS011;5098;48.792;9.012;2023-03-30T01:10:48;9.13;;;3.10;;
10116;SDS011;5098;48.792;9.012;2023-03-30T01:13:14;8.20;;;2.90;;
10116;SDS011;5098;48.792;9.012;2023-03-30T01:15:44;2.63;;;1.50;;
10116;SDS011;5098;48.792;9.012;2023-03-30T01:18:17;10.90;;;2.87;;
10116;SDS011;5098;48.792;9.012;2023-03-30T01:31:24;5.83;;;2.03;;
10116;SDS011;5098;48.792;9.012;2023-03-30T01:44:02;13.20;;;3.90;;
10116;SDS011;5098;48.792;9.012;2023-03-30T01:46:37;6.90;;;2.47;;
10116;SDS011;5098;48.792;9.012;2023-03-30T01:49:11;7.60;;;2.70;;
10116;SDS011;5098;48.792;9.012;2023-03-30T01:51:41;8.17;;;2.43;;
10116;SDS011;5098;48.792;9.012;2023-03-30T01:54:11;5.67;;;2.77;;
10116;SDS011;5098;48.792;9.012;2023-03-30T01:56:49;6.37;;;3.20;;
10116;SDS011;5098;48.792;9.012;2023-03-30T02:01:45;9.80;;;2.27;;
10116;SDS011;5098;48.792;9.012;2023-03-30T02:04:14;10.30;;;2.73;;
10116;SDS011;5098;48.792;9.012;2023-03-30T02:06:51;11.33;;;2.90;;
10116;SDS011;5098;48.792;9.012;2023-03-30T02:09:19;5.00;;;2.70;;
10116;SDS011;5098;48.792;9.012;2023-03-30T02:11:48;8.23;;;2.80;;
10116;SDS011;5098;48.792;9.012;2023-03-30T02:14:15;3.83;;;2.20;;
10116;SDS011;5098;48.792;9.012;2023-03-30T02:16:44;11.10;;;2.93;;
10116;SDS011;5098;48.792;9.012;2023-03-30T02:19:10;9.93;;;3.10;;
10116;SDS011;5098;48.792;9.012;2023-03-30T02:21:37;8.93;;;3.30;;
10116;SDS011;5098;48.792;9.012;2023-03-30T02:24:04;6.50;;;2.43;;
10116;SDS011;5098;48.792;9.012;2023-03-30T02:26:35;5.37;;;2.53;;
10116;SDS011;5098;48.792;9.012;2023-03-30T02:29:02;11.47;;;3.23;;
10116;SDS011;5098;48.792;9.012;2023-03-30T02:31:28;5.17;;;2.83;;
10116;SDS011;5098;48.792;9.012;2023-03-30T02:49:36;14.87;;;3.30;;
10116;SDS011;5098;48.792;9.012;2023-03-30T02:52:21;14.53;;;3.10;;
10116;SDS011;5098;48.792;9.012;2023-03-30T02:54:49;10.20;;;3.40;;
10116;SDS011;5098;48.792;9.012;2023-03-30T02:58:01;12.70;;;3.13;;
10116;SDS011;5098;48.792;9.012;2023-03-30T03:03:21;13.10;;;3.17;;
10116;SDS011;5098;48.792;9.012;2023-03-30T03:05:48;9.10;;;3.60;;
10116;SDS011;5098;48.792;9.012;2023-03-30T03:08:18;9.60;;;3.73;;
10116;SDS011;5098;48.792;9.012;2023-03-30T03:10:44;6.23;;;2.50;;
10116;SDS011;5098;48.792;9.012;2023-03-30T03:13:10;10.00;;;3.07;;
10116;SDS011;5098;48.792;9.012;2023-03-30T03:15:39;13.03;;;3.10;;
10116;SDS011;5098;48.792;9.012;2023-03-30T03:18:05;10.60;;;3.23;;
10116;SDS011;5098;48.792;9.012;2023-03-30T03:20:31;8.63;;;3.73;;
10116;SDS011;5098;48.792;9.012;2023-03-30T03:22:57;7.90;;;3.33;;
10116;SDS011;5098;48.792;9.012;2023-03-30T03:25:23;12.57;;;3.43;;
10116;SDS011;5098;48.792;9.012;2023-03-30T03:27:49;9.80;;;3.00;;
10116;SDS011;5098;48.792;9.012;2023-03-30T03:30:15;11.00;;;3.17;;
10116;SDS011;5098;48.792;9.012;2023-03-30T03:32:41;11.97;;;4.00;;
10116;SDS011;5098;48.792;9.012;2023-03-30T03:35:07;13.93;;;3.30;;
10116;SDS011;5098;48.792;9.012;2023-03-30T03:37:33;11.67;;;3.97;;
10116;SDS011;5098;48.792;9.012;2023-03-30T03:39:59;11.23;;;3.50;;
10116;SDS011;5098;48.792;9.012;2023-03-30T03:42:25;10.80;;;3.57;;
10116;SDS011;5098;48.792;9.012;2023-03-30T03:44:51;12.57;;;4.50;;
10116;SDS011;5098;48.792;9.012;2023-03-30T03:47:17;7.60;;;3.77;;
10116;SDS011;5098;48.792;9.012;2023-03-30T03:49:43;7.40;;;3.10;;
10116;SDS011;5098;48.792;9.012;2023-03-30T03:52:10;5.40;;;2.20;;
10116;SDS011;5098;48.792;9.012;2023-03-30T03:54:36;9.37;;;2.83;;
10116;SDS011;5098;48.792;9.012;2023-03-30T03:57:02;10.23;;;3.20;;
10116;SDS011;5098;48.792;9.012;2023-03-30T03:59:29;10.53;;;3.50;;
10116;SDS011;5098;48.792;9.012;2023-03-30T04:01:56;7.43;;;3.20;;
10116;SDS011;5098;48.792;9.012;2023-03-30T04:04:22;10.53;;;3.10;;
10116;SDS011;5098;48.792;9.012;2023-03-30T04:06:48;7.20;;;3.20;;
10116;SDS011;5098;48.792;9.012;2023-03-30T04:09:15;10.57;;;3.27;;
10116;SDS011;5098;48.792;9.012;2023-03-30T04:11:43;7.43;;;2.70;;
10116;SDS011;5098;48.792;9.012;2023-03-30T04:14:09;12.50;;;3.13;;
10116;SDS011;5098;48.792;9.012;2023-03-30T04:16:35;6.43;;;3.20;;
10116;SDS011;5098;48.792;9.012;2023-03-30T04:19:01;11.57;;;3.40;;
10116;SDS011;5098;48.792;9.012;2023-03-30T04:21:27;10.17;;;3.40;;
10116;SDS011;5098;48.792;9.012;2023-03-30T04:23:54;6.30;;;2.87;;
10116;SDS011;5098;48.792;9.012;2023-03-30T04:26:20;12.33;;;3.37;;
10116;SDS011;5098;48.792;9.012;2023-03-30T04:28:48;11.80;;;3.70;;
10116;SDS011;5098;48.792;9.012;2023-03-30T04:31:17;11.93;;;4.13;;
10116;SDS011;5098;48.792;9.012;2023-03-30T04:33:43;12.47;;;3.33;;
10116;SDS011;5098;48.792;9.012;2023-03-30T04:36:14;11.67;;;3.60;;
10116;SDS011;5098;48.792;9.012;2023-03-30T04:38:45;8.57;;;3.23;;
10116;SDS011;5098;48.792;9.012;2023-03-30T04:41:30;11.73;;;3.40;;
10116;SDS011;5098;48.792;9.012;2023-03-30T04:44:00;11.20;;;3.90;;
10116;SDS011;5098;48.792;9.012;2023-03-30T04:46:26;9.17;;;3.83;;
10116;SDS011;5098;48.792;9.012;2023-03-30T04:48:52;13.07;;;3.80;;
10116;SDS011;5098;48.792;9.012;2023-03-30T04:51:21;11.53;;;3.27;;
10116;SDS011;5098;48.792;9.012;2023-03-30T04:53:47;13.83;;;3.30;;
10116;SDS011;5098;48.792;9.012;2023-03-30T04:56:13;10.70;;;4.00;;
10116;SDS011;5098;48.792;9.012;2023-03-30T04:58:39;15.23;;;4.83;;
10116;SDS011;5098;48.792;9.012;2023-03-30T05:01:05;11.47;;;3.80;;
10116;SDS011;5098;48.792;9.012;2023-03-30T05:03:32;9.67;;;2.87;;
10116;SDS011;5098;48.792;9.012;2023-03-30T05:05:59;12.67;;;3.67;;
10116;SDS011;5098;48.792;9.012;2023-03-30T05:08:28;7.43;;;2.83;;
10116;SDS011;5098;48.792;9.012;2023-03-30T05:10:54;11.57;;;3.40;;
10116;SDS011;5098;48.792;9.012;2023-03-30T05:13:25;3.10;;;1.90;;
10116;SDS011;5098;48.792;9.012;2023-03-30T05:15:56;9.57;;;4.07;;
10116;SDS011;5098;48.792;9.012;2023-03-30T05:18:22;10.23;;;3.37;;
10116;SDS011;5098;48.792;9.012;2023-03-30T05:20:48;15.33;;;4.23;;
10116;SDS011;5098;48.792;9.012;2023-03-30T05:23:14;10.87;;;3.70;;
10116;SDS011;5098;48.792;9.012;2023-03-30T05:25:41;10.77;;;3.73;;
10116;SDS011;5098;48.792;9.012;2023-03-30T05:28:12;13.40;;;4.20;;
10116;SDS011;5098;48.792;9.012;2023-03-30T05:30:38;10.43;;;3.20;;
10116;SDS011;5098;48.792;9.012;2023-03-30T05:33:05;10.43;;;3.20;;
10116;SDS011;5098;48.792;9.012;2023-03-30T05:35:33;7.67;;;3.40;;
10116;SDS011;5098;48.792;9.012;2023-03-30T05:37:59;11.33;;;3.33;;
10116;SDS011;5098;48.792;9.012;2023-03-30T05:40:25;8.43;;;3.47;;
10116;SDS011;5098;48.792;9.012;2023-03-30T05:42:51;11.30;;;3.87;;
10116;SDS011;5098;48.792;9.012;2023-03-30T05:45:17;9.00;;;3.47;;
10116;SDS011;5098;48.792;9.012;2023-03-30T05:47:43;8.20;;;3.27;;
10116;SDS011;5098;48.792;9.012;2023-03-30T05:50:09;14.33;;;4.23;;
10116;SDS011;5098;48.792;9.012;2023-03-30T05:52:36;12.53;;;3.70;;
10116;SDS011;5098;48.792;9.012;2023-03-30T05:55:02;7.70;;;3.47;;
10116;SDS011;5098;48.792;9.012;2023-03-30T05:57:28;22.00;;;3.60;;
10116;SDS011;5098;48.792;9.012;2023-03-30T05:59:55;12.13;;;3.43;;
10116;SDS011;5098;48.792;9.012;2023-03-30T06:02:21;18.30;;;4.00;;
10116;SDS011;5098;48.792;9.012;2023-03-30T06:04:47;9.50;;;3.03;;
10116;SDS011;5098;48.792;9.012;2023-03-30T06:07:13;13.63;;;3.67;;
10116;SDS011;5098;48.792;9.012;2023-03-30T06:09:39;13.63;;;3.80;;
10116;SDS011;5098;48.792;9.012;2023-03-30T06:12:06;12.90;;;3.80;;
10116;SDS011;5098;48.792;9.012;2023-03-30T06:14:32;7.10;;;2.67;;
10116;SDS011;5098;48.792;9.012;2023-03-30T06:16:58;15.97;;;3.97;;
10116;SDS011;5098;48.792;9.012;2023-03-30T06:19:24;9.87;;;2.90;;
10116;SDS011;5098;48.792;9.012;2023-03-30T06:21:50;9.83;;;4.00;;
10116;SDS011;5098;48.792;9.012;2023-03-30T06:24:18;12.13;;;3.43;;
10116;SDS011;5098;48.792;9.012;2023-03-30T06:26:45;10.50;;;3.90;;
10116;SDS011;5098;48.792;9.012;2023-03-30T06:29:12;10.77;;;4.07;;
10116;SDS011;5098;48.792;9.012;2023-03-30T06:31:39;10.37;;;3.83;;
10116;SDS011;5098;48.792;9.012;2023-03-30T06:34:05;21.60;;;5.00;;
10116;SDS011;5098;48.792;9.012;2023-03-30T06:36:31;12.10;;;3.93;;
10116;SDS011;5098;48.792;9.012;2023-03-30T06:38:58;13.30;;;4.70;;
10116;SDS011;5098;48.792;9.012;2023-03-30T06:41:24;9.73;;;3.93;;
10116;SDS011;5098;48.792;9.012;2023-03-30T06:43:50;6.30;;;3.10;;
10116;SDS011;5098;48.792;9.012;2023-03-30T06:46:16;13.63;;;4.07;;
10116;SDS011;5098;48.792;9.012;2023-03-30T06:48:42;11.77;;;3.47;;
10116;SDS011;5098;48.792;9.012;2023-03-30T06:51:08;12.67;;;4.70;;
10116;SDS011;5098;48.792;9.012;2023-03-30T06:53:36;11.40;;;4.07;;
10116;SDS011;5098;48.792;9.012;2023-03-30T06:56:03;20.40;;;4.67;;
10116;SDS011;5098;48.792;9.012;2023-03-30T06:58:29;12.03;;;4.20;;
10116;SDS011;5098;48.792;9.012;2023-03-30T07:00:55;14.67;;;4.50;;
10116;SDS011;5098;48.792;9.012;2023-03-30T07:03:21;11.93;;;4.37;;
10116;SDS011;5098;48.792;9.012;2023-03-30T07:05:48;12.67;;;3.70;;
10116;SDS011;5098;48.792;9.012;2023-03-30T07:08:15;9.43;;;3.90;;
10116;SDS011;5098;48.792;9.012;2023-03-30T07:10:42;9.20;;;3.90;;
10116;SDS011;5098;48.792;9.012;2023-03-30T07:13:08;11.20;;;4.30;;
10116;SDS011;5098;48.792;9.012;2023-03-30T07:15:34;11.43;;;4.13;;
10116;SDS011;5098;48.792;9.012;2023-03-30T07:18:00;10.57;;;4.50;;
10116;SDS011;5098;48.792;9.012;2023-03-30T07:20:27;10.50;;;4.30;;
10116;SDS011;5098;48.792;9.012;2023-03-30T07:22:53;11.70;;;5.10;;
10116;SDS011;5098;48.792;9.012;2023-03-30T07:25:19;10.70;;;3.90;;
10116;SDS011;5098;48.792;9.012;2023-03-30T07:27:45;6.77;;;4.20;;
10116;SDS011;5098;48.792;9.012;2023-03-30T07:30:12;13.80;;;4.37;;
10116;SDS011;5098;48.792;9.012;2023-03-30T07:32:38;8.37;;;4.03;;
10116;SDS011;5098;48.792;9.012;2023-03-30T07:35:05;9.90;;;5.10;;
10116;SDS011;5098;48.792;9.012;2023-03-30T07:37:32;13.03;;;6.13;;
10116;SDS011;5098;48.792;9.012;2023-03-30T07:39:59;12.80;;;8.00;;
10116;SDS011;5098;48.792;9.012;2023-03-30T07:42:25;15.90;;;5.00;;
10116;SDS011;5098;48.792;9.012;2023-03-30T07:44:51;12.33;;;4.80;;
10116;SDS011;5098;48.792;9.012;2023-03-30T07:47:17;12.77;;;5.00;;
10116;SDS011;5098;48.792;9.012;2023-03-30T07:49:44;10.17;;;4.70;;
10116;SDS011;5098;48.792;9.012;2023-03-30T07:52:10;8.57;;;3.90;;
10116;SDS011;5098;48.792;9.012;2023-03-30T07:54:36;13.83;;;4.50;;
10116;SDS011;5098;48.792;9.012;2023-03-30T07:57:02;8.60;;;3.97;;
10116;SDS011;5098;48.792;9.012;2023-03-30T07:59:29;7.87;;;5.10;;
10116;SDS011;5098;48.792;9.012;2023-03-30T08:01:56;10.90;;;5.20;;
10116;SDS011;5098;48.792;9.012;2023-03-30T08:04:22;7.27;;;3.60;;
10116;SDS011;5098;48.792;9.012;2023-03-30T08:06:49;6.87;;;4.70;;
10116;SDS011;5098;48.792;9.012;2023-03-30T08:09:18;9.70;;;4.50;;
10116;SDS011;5098;48.792;9.012;2023-03-30T08:11:44;8.20;;;4.80;;
10116;SDS011;5098;48.792;9.012;2023-03-30T08:14:10;6.57;;;3.90;;
10116;SDS011;5098;48.792;9.012;2023-03-30T08:16:37;13.17;;;4.30;;
10116;SDS011;5098;48.792;9.012;2023-03-30T08:19:03;4.50;;;3.20;;
10116;SDS011;5098;48.792;9.012;2023-03-30T08:21:29;5.53;;;3.57;;
10116;SDS011;5098;48.792;9.012;2023-03-30T08:23:55;8.70;;;5.00;;
10116;SDS011;5098;48.792;9.012;2023-03-30T08:26:23;7.90;;;5.43;;
10116;SDS011;5098;48.792;9.012;2023-03-30T08:28:49;7.67;;;4.50;;
10116;SDS011;5098;48.792;9.012;2023-03-30T08:31:15;9.43;;;4.47;;
10116;SDS011;5098;48.792;9.012;2023-03-30T08:33:42;7.47;;;3.47;;
10116;SDS011;5098;48.792;9.012;2023-03-30T08:36:09;5.77;;;3.20;;
10116;SDS011;5098;48.792;9.012;2023-03-30T08:38:36;9.87;;;4.10;;
10116;SDS011;5098;48.792;9.012;2023-03-30T08:41:48;7.53;;;4.10;;
10116;SDS011;5098;48.792;9.012;2023-03-30T08:46:48;10.13;;;3.57;;
10116;SDS011;5098;48.792;9.012;2023-03-30T08:49:16;9.73;;;3.87;;
10116;SDS011;5098;48.792;9.012;2023-03-30T08:51:43;5.60;;;3.43;;
10116;SDS011;5098;48.792;9.012;2023-03-30T08:54:20;5.17;;;3.30;;
10116;SDS011;5098;48.792;9.012;2023-03-30T08:56:59;7.20;;;2.77;;
10116;SDS011;5098;48.792;9.012;2023-03-30T08:59:41;7.03;;;2.50;;
10116;SDS011;5098;48.792;9.012;2023-03-30T09:02:18;3.37;;;2.70;;
10116;SDS011;5098;48.792;9.012;2023-03-30T09:07:30;2.90;;;2.50;;
10116;SDS011;5098;48.792;9.012;2023-03-30T09:09:58;4.20;;;1.43;;
10116;SDS011;5098;48.792;9.012;2023-03-30T09:17:47;4.17;;;2.20;;
10116;SDS011;5098;48.792;9.012;2023-03-30T09:20:19;4.40;;;2.20;;
10116;SDS011;5098;48.792;9.012;2023-03-30T09:22:50;4.17;;;2.37;;
10116;SDS011;5098;48.792;9.012;2023-03-30T09:27:50;3.07;;;1.97;;
10116;SDS011;5098;48.792;9.012;2023-03-30T09:30:21;4.13;;;2.37;;
10116;SDS011;5098;48.792;9.012;2023-03-30T09:33:01;3.30;;;2.00;;
10116;SDS011;5098;48.792;9.012;2023-03-30T09:35:33;3.33;;;1.97;;
10116;SDS011;5098;48.792;9.012;2023-03-30T09:38:00;3.00;;;1.50;;
10116;SDS011;5098;48.792;9.012;2023-03-30T09:43:18;4.83;;;2.50;;
10116;SDS011;5098;48.792;9.012;2023-03-30T09:45:48;6.30;;;2.20;;
10116;SDS011;5098;48.792;9.012;2023-03-30T09:48:14;4.60;;;2.23;;
10116;SDS011;5098;48.792;9.012;2023-03-30T09:50:44;4.13;;;2.33;;
10116;SDS011;5098;48.792;9.012;2023-03-30T09:53:19;3.43;;;2.17;;
10116;SDS011;5098;48.792;9.012;2023-03-30T09:58:31;4.33;;;2.13;;
10116;SDS011;5098;48.792;9.012;2023-03-30T10:01:05;3.37;;;2.33;;
10116;SDS011;5098;48.792;9.012;2023-03-30T10:03:32;4.20;;;2.37;;
10116;SDS011;5098;48.792;9.012;2023-03-30T10:05:59;8.33;;;2.70;;
10116;SDS011;5098;48.792;9.012;2023-03-30T10:08:26;3.30;;;2.63;;
10116;SDS011;5098;48.792;9.012;2023-03-30T10:10:53;4.13;;;2.43;;
10116;SDS011;5098;48.792;9.012;2023-03-30T10:13:23;3.57;;;2.60;;
10116;SDS011;5098;48.792;9.012;2023-03-30T10:15:51;2.63;;;2.20;;
10116;SDS011;5098;48.792;9.012;2023-03-30T10:18:23;4.80;;;2.67;;
10116;SDS011;5098;48.792;9.012;2023-03-30T10:21:00;3.60;;;2.40;;
10116;SDS011;5098;48.792;9.012;2023-03-30T10:23:29;5.43;;;2.50;;
10116;SDS011;5098;48.792;9.012;2023-03-30T10:25:59;4.03;;;2.87;;
10116;SDS011;5098;48.792;9.012;2023-03-30T10:28:27;5.97;;;2.80;;
10116;SDS011;5098;48.792;9.012;2023-03-30T10:31:06;8.33;;;2.90;;
10116;SDS011;5098;48.792;9.012;2023-03-30T10:33:37;6.13;;;3.10;;
10116;SDS011;5098;48.792;9.012;2023-03-30T10:36:10;2.93;;;2.67;;
10116;SDS011;5098;48.792;9.012;2023-03-30T10:38:38;2.73;;;2.50;;
10116;SDS011;5098;48.792;9.012;2023-03-30T10:41:15;4.03;;;2.57;;
10116;SDS011;5098;48.792;9.012;2023-03-30T10:43:45;3.87;;;2.83;;
10116;SDS011;5098;48.792;9.012;2023-03-30T10:46:17;7.97;;;2.67;;
10116;SDS011;5098;48.792;9.012;2023-03-30T11:04:18;2.60;;;2.20;;
10116;SDS011;5098;48.792;9.012;2023-03-30T11:06:47;5.03;;;2.10;;
10116;SDS011;5098;48.792;9.012;2023-03-30T11:09:18;3.57;;;2.30;;
10116;SDS011;5098;48.792;9.012;2023-03-30T11:11:50;3.80;;;2.23;;
10116;SDS011;5098;48.792;9.012;2023-03-30T11:14:22;2.93;;;2.70;;
10116;SDS011;5098;48.792;9.012;2023-03-30T11:16:58;6.17;;;3.13;;
10116;SDS011;5098;48.792;9.012;2023-03-30T11:19:37;3.80;;;2.20;;
10116;SDS011;5098;48.792;9.012;2023-03-30T11:22:14;5.40;;;2.40;;
10116;SDS011;5098;48.792;9.012;2023-03-30T11:24:43;4.20;;;2.60;;
10116;SDS011;5098;48.792;9.012;2023-03-30T11:29:59;5.27;;;2.50;;
10116;SDS011;5098;48.792;9.012;2023-03-30T11:37:21;6.10;;;2.47;;
10116;SDS011;5098;48.792;9.012;2023-03-30T11:40:15;4.40;;;2.90;;
10116;SDS011;5098;48.792;9.012;2023-03-30T11:42:40;5.47;;;2.67;;
10116;SDS011;5098;48.792;9.012;2023-03-30T11:53:11;5.17;;;2.37;;
10116;SDS011;5098;48.792;9.012;2023-03-30T11:56:00;4.13;;;2.50;;
10116;SDS011;5098;48.792;9.012;2023-03-30T11:58:36;4.63;;;2.63;;
10116;SDS011;5098;48.792;9.012;2023-03-30T12:03:49;5.30;;;2.60;;
10116;SDS011;5098;48.792;9.012;2023-03-30T12:13:56;5.43;;;2.57;;
10116;SDS011;5098;48.792;9.012;2023-03-30T12:24:34;3.80;;;2.37;;
10116;SDS011;5098;48.792;9.012;2023-03-30T12:27:04;7.30;;;3.50;;
10116;SDS011;5098;48.792;9.012;2023-03-30T12:29:49;3.80;;;2.40;;
10116;SDS011;5098;48.792;9.012;2023-03-30T12:32:26;4.07;;;2.57;;
10116;SDS011;5098;48.792;9.012;2023-03-30T12:34:52;6.53;;;2.33;;
10116;SDS011;5098;48.792;9.012;2023-03-30T12:42:31;5.53;;;3.20;;
10116;SDS011;5098;48.792;9.012;2023-03-30T12:50:17;3.57;;;2.47;;
10116;SDS011;5098;48.792;9.012;2023-03-30T13:00:22;6.03;;;2.30;;
10116;SDS011;5098;48.792;9.012;2023-03-30T13:03:02;3.00;;;2.10;;
10116;SDS011;5098;48.792;9.012;2023-03-30T13:05:32;4.23;;;2.20;;
10116;SDS011;5098;48.792;9.012;2023-03-30T13:08:03;3.57;;;1.87;;
10116;SDS011;5098;48.792;9.012;2023-03-30T13:13:00;6.40;;;2.00;;
10116;SDS011;5098;48.792;9.012;2023-03-30T13:20:35;6.20;;;2.40;;
10116;SDS011;5098;48.792;9.012;2023-03-30T13:25:50;4.00;;;3.30;;
10116;SDS011;5098;48.792;9.012;2023-03-30T13:28:35;3.10;;;2.07;;
10116;SDS011;5098;48.792;9.012;2023-03-30T13:33:35;5.10;;;2.50;;
10116;SDS011;5098;48.792;9.012;2023-03-30T13:36:08;5.30;;;2.03;;
10116;SDS011;5098;48.792;9.012;2023-03-30T13:38:44;4.20;;;2.63;;
10116;SDS011;5098;48.792;9.012;2023-03-30T13:41:24;4.17;;;2.30;;
10116;SDS011;5098;48.792;9.012;2023-03-30T13:44:01;3.33;;;2.20;;
10116;SDS011;5098;48.792;9.012;2023-03-30T13:51:35;4.43;;;1.80;;
10116;SDS011;5098;48.792;9.012;2023-03-30T13:54:02;2.20;;;2.00;;
10116;SDS011;5098;48.792;9.012;2023-03-30T13:56:34;2.70;;;1.97;;
10116;SDS011;5098;48.792;9.012;2023-03-30T13:59:06;6.33;;;2.80;;
10116;SDS011;5098;48.792;9.012;2023-03-30T14:01:35;3.47;;;1.90;;
10116;SDS011;5098;48.792;9.012;2023-03-30T14:04:02;4.57;;;1.80;;
10116;SDS011;5098;48.792;9.012;2023-03-30T14:06:30;2.43;;;1.90;;
10116;SDS011;5098;48.792;9.012;2023-03-30T14:11:30;4.83;;;2.70;;
10116;SDS011;5098;48.792;9.012;2023-03-30T14:13:58;4.87;;;2.47;;
10116;SDS011;5098;48.792;9.012;2023-03-30T14:16:25;4.33;;;1.90;;
10116;SDS011;5098;48.792;9.012;2023-03-30T14:18:52;2.80;;;1.33;;
10116;SDS011;5098;48.792;9.012;2023-03-30T14:21:19;3.57;;;1.80;;
10116;SDS011;5098;48.792;9.012;2023-03-30T14:23:49;3.27;;;1.40;;
10116;SDS011;5098;48.792;9.012;2023-03-30T14:28:42;2.50;;;1.80;;
10116;SDS011;5098;48.792;9.012;2023-03-30T14:31:15;2.77;;;1.60;;
10116;SDS011;5098;48.792;9.012;2023-03-30T14:33:41;2.70;;;2.17;;
10116;SDS011;5098;48.792;9.012;2023-03-30T14:36:08;7.73;;;2.53;;
10116;SDS011;5098;48.792;9.012;2023-03-30T14:38:37;6.17;;;2.17;;
10116;SDS011;5098;48.792;9.012;2023-03-30T14:41:07;3.90;;;2.07;;
10116;SDS011;5098;48.792;9.012;2023-03-30T14:43:36;5.53;;;2.27;;
10116;SDS011;5098;48.792;9.012;2023-03-30T14:46:04;4.13;;;2.13;;
10116;SDS011;5098;48.792;9.012;2023-03-30T14:48:35;2.10;;;1.30;;
10116;SDS011;5098;48.792;9.012;2023-03-30T14:51:02;2.53;;;1.47;;
10116;SDS011;5098;48.792;9.012;2023-03-30T14:53:33;5.47;;;1.67;;
10116;SDS011;5098;48.792;9.012;2023-03-30T14:56:00;3.37;;;1.50;;
10116;SDS011;5098;48.792;9.012;2023-03-30T14:58:28;3.73;;;2.07;;
10116;SDS011;5098;48.792;9.012;2023-03-30T15:00:56;2.80;;;1.40;;
10116;SDS011;5098;48.792;9.012;2023-03-30T15:03:23;3.80;;;1.43;;
10116;SDS011;5098;48.792;9.012;2023-03-30T15:05:51;3.43;;;1.77;;
10116;SDS011;5098;48.792;9.012;2023-03-30T15:08:25;4.30;;;1.50;;
10116;SDS011;5098;48.792;9.012;2023-03-30T15:10:52;2.20;;;1.33;;
10116;SDS011;5098;48.792;9.012;2023-03-30T15:13:22;3.57;;;1.77;;
10116;SDS011;5098;48.792;9.012;2023-03-30T15:15:49;6.07;;;2.10;;
10116;SDS011;5098;48.792;9.012;2023-03-30T15:18:18;4.70;;;2.00;;
10116;SDS011;5098;48.792;9.012;2023-03-30T15:20:45;4.50;;;2.50;;
10116;SDS011;5098;48.792;9.012;2023-03-30T15:23:12;2.73;;;1.50;;
10116;SDS011;5098;48.792;9.012;2023-03-30T15:25:39;2.77;;;1.30;;
10116;SDS011;5098;48.792;9.012;2023-03-30T15:28:10;5.33;;;2.07;;
10116;SDS011;5098;48.792;9.012;2023-03-30T15:30:38;3.93;;;1.90;;
10116;SDS011;5098;48.792;9.012;2023-03-30T15:33:05;4.50;;;1.93;;
10116;SDS011;5098;48.792;9.012;2023-03-30T15:35:35;3.53;;;1.67;;
10116;SDS011;5098;48.792;9.012;2023-03-30T15:38:04;1.90;;;1.60;;
10116;SDS011;5098;48.792;9.012;2023-03-30T15:40:38;2.50;;;1.60;;
10116;SDS011;5098;48.792;9.012;2023-03-30T15:45:39;5.03;;;2.17;;
10116;SDS011;5098;48.792;9.012;2023-03-30T15:48:08;5.07;;;1.80;;
10116;SDS011;5098;48.792;9.012;2023-03-30T15:50:35;5.73;;;1.60;;
10116;SDS011;5098;48.792;9.012;2023-03-30T15:53:01;1.83;;;1.17;;
10116;SDS011;5098;48.792;9.012;2023-03-30T15:55:28;3.60;;;1.97;;
10116;SDS011;5098;48.792;9.012;2023-03-30T15:57:56;2.20;;;1.37;;
10116;SDS011;5098;48.792;9.012;2023-03-30T16:00:26;5.03;;;1.13;;
10116;SDS011;5098;48.792;9.012;2023-03-30T16:02:56;3.57;;;1.00;;
10116;SDS011;5098;48.792;9.012;2023-03-30T16:05:32;2.50;;;1.00;;
10116;SDS011;5098;48.792;9.012;2023-03-30T16:07:59;2.13;;;1.10;;
10116;SDS011;5098;48.792;9.012;2023-03-30T16:10:26;3.43;;;1.20;;
10116;SDS011;5098;48.792;9.012;2023-03-30T16:12:53;1.87;;;0.90;;
10116;SDS011;5098;48.792;9.012;2023-03-30T16:15:21;1.90;;;0.77;;
10116;SDS011;5098;48.792;9.012;2023-03-30T16:17:48;1.30;;;0.80;;
10116;SDS011;5098;48.792;9.012;2023-03-30T16:20:15;2.63;;;1.17;;
10116;SDS011;5098;48.792;9.012;2023-03-30T16:22:42;3.20;;;1.83;;
10116;SDS011;5098;48.792;9.012;2023-03-30T16:25:08;5.10;;;1.60;;
10116;SDS011;5098;48.792;9.012;2023-03-30T16:27:35;1.70;;;0.93;;
10116;SDS011;5098;48.792;9.012;2023-03-30T16:30:08;2.90;;;1.13;;
10116;SDS011;5098;48.792;9.012;2023-03-30T16:32:38;2.77;;;1.20;;
10116;SDS011;5098;48.792;9.012;2023-03-30T16:35:04;2.30;;;1.30;;
10116;SDS011;5098;48.792;9.012;2023-03-30T16:37:30;2.07;;;1.00;;
10116;SDS011;5098;48.792;9.012;2023-03-30T16:39:56;1.30;;;0.80;;
10116;SDS011;5098;48.792;9.012;2023-03-30T16:42:22;1.63;;;1.10;;
10116;SDS011;5098;48.792;9.012;2023-03-30T16:44:50;4.10;;;1.10;;
10116;SDS011;5098;48.792;9.012;2023-03-30T16:47:16;2.20;;;0.90;;
10116;SDS011;5098;48.792;9.012;2023-03-30T16:49:45;3.30;;;1.30;;
10116;SDS011;5098;48.792;9.012;2023-03-30T16:52:11;2.77;;;1.20;;
10116;SDS011;5098;48.792;9.012;2023-03-30T16:54:37;6.40;;;1.70;;
10116;SDS011;5098;48.792;9.012;2023-03-30T16:57:04;1.60;;;1.20;;
10116;SDS011;5098;48.792;9.012;2023-03-30T16:59:30;1.80;;;0.83;;
10116;SDS011;5098;48.792;9.012;2023-03-30T17:01:57;1.57;;;0.93;;
10116;SDS011;5098;48.792;9.012;2023-03-30T17:04:23;5.17;;;1.80;;
10116;SDS011;5098;48.792;9.012;2023-03-30T17:06:49;2.10;;;1.30;;
10116;SDS011;5098;48.792;9.012;2023-03-30T17:09:18;2.07;;;1.53;;
10116;SDS011;5098;48.792;9.012;2023-03-30T17:11:45;2.20;;;1.00;;
10116;SDS011;5098;48.792;9.012;2023-03-30T17:14:12;2.30;;;1.07;;
10116;SDS011;5098;48.792;9.012;2023-03-30T17:16:38;3.03;;;1.27;;
10116;SDS011;5098;48.792;9.012;2023-03-30T17:19:04;4.73;;;1.77;;
10116;SDS011;5098;48.792;9.012;2023-03-30T17:21:30;3.53;;;1.47;;
10116;SDS011;5098;48.792;9.012;2023-03-30T17:23:56;2.97;;;1.37;;
10116;SDS011;5098;48.792;9.012;2023-03-30T17:26:22;4.03;;;1.70;;
10116;SDS011;5098;48.792;9.012;2023-03-30T17:28:48;3.73;;;1.40;;
10116;SDS011;5098;48.792;9.012;2023-03-30T17:31:21;3.50;;;1.37;;
10116;SDS011;5098;48.792;9.012;2023-03-30T17:33:48;2.50;;;1.40;;
10116;SDS011;5098;48.792;9.012;2023-03-30T17:36:18;7.00;;;1.70;;
10116;SDS011;5098;48.792;9.012;2023-03-30T17:38:45;2.20;;;1.27;;
10116;SDS011;5098;48.792;9.012;2023-03-30T17:41:11;4.87;;;1.80;;
10116;SDS011;5098;48.792;9.012;2023-03-30T17:43:38;3.03;;;1.13;;